Time;durP1;ratioP1;P1;durP2;ratioP2;P2;SDS_P1;SDS_P2;PMS_P1;PMS_P2;Temp;Humidity;BMP_temperature;BMP_pressure;BME280_temperature;BME280_humidity;BME280_pressure;Samples;Min_cycle;Max_cycle;Signal;HPM_P1;HPM_P2
2023/05/27 04:22:32;;;;;;;8.18;2.45;;;;;;;12.65;73.64;100948.88;5089374;28;20719;-66
2023/05/27 04:24:58;;;;;;;4.38;2.20;;;;;;;12.57;73.37;100939.03;5088267;28;20074;-66
2023/05/27 04:27:26;;;;;;;11.15;2.60;;;;;;;12.65;72.80;100946.19;5088150;28;20045;-66
2023/05/27 04:29:52;;;;;;;4.38;2.25;;;;;;;12.65;72.55;100949.75;5088021;28;20043;-66
2023/05/27 04:32:20;;;;;;;6.40;2.55;;;;;;;12.66;72.60;100943.38;5088050;28;20481;-66
2023/05/27 04:34:47;;;;;;;5.60;2.35;;;;;;;12.79;72.24;100950.03;5088088;28;20550;-63
2023/05/27 04:37:12;;;;;;;12.10;2.97;;;;;;;12.83;71.72;100949.50;5088037;28;20065;-64
2023/05/27 04:39:45;;;;;;;9.45;2.42;;;;;;;12.87;71.83;100950.03;5087717;28;20036;-66
2023/05/27 04:42:12;;;;;;;6.53;2.67;;;;;;;12.86;71.57;100941.16;5087919;28;20032;-64
2023/05/27 04:44:41;;;;;;;7.57;2.95;;;;;;;12.92;71.21;100945.84;5089364;28;20124;-64
2023/05/27 04:47:06;;;;;;;7.43;2.65;;;;;;;12.93;70.96;100944.00;5087853;28;20122;-63
2023/05/27 04:49:32;;;;;;;6.00;2.72;;;;;;;12.99;70.83;100949.47;5088678;28;20040;-66
2023/05/27 04:51:59;;;;;;;6.38;2.40;;;;;;;12.96;70.58;100940.94;5071147;28;20036;-66
2023/05/27 04:54:25;;;;;;;10.50;2.75;;;;;;;12.97;70.74;100945.28;5071061;28;20047;-67
2023/05/27 04:56:51;;;;;;;6.45;2.63;;;;;;;13.00;70.35;100947.63;5087558;28;20041;-65
2023/05/27 04:59:21;;;;;;;10.25;2.47;;;;;;;13.03;70.20;100944.59;5087270;28;20032;-65
2023/05/27 05:02:09;;;;;;;6.93;2.10;;;;;;;13.16;69.21;100947.56;5087602;28;20044;-66
2023/05/27 05:04:39;;;;;;;6.97;2.53;;;;;;;13.09;69.45;100940.41;5087462;28;20409;-66
2023/05/27 05:07:05;;;;;;;7.28;2.50;;;;;;;13.21;69.10;100947.09;5087547;28;20021;-67
2023/05/27 05:09:33;;;;;;;6.13;1.75;;;;;;;13.23;68.55;100942.38;5087108;28;20032;-66
2023/05/27 05:12:06;;;;;;;7.28;2.38;;;;;;;13.30;69.18;100948.72;5087435;28;20051;-66
2023/05/27 05:14:36;;;;;;;4.88;2.42;;;;;;;13.32;68.33;100940.53;5087262;28;20405;-67
2023/05/27 05:17:01;;;;;;;7.78;2.45;;;;;;;13.32;68.64;100943.22;5087226;28;20036;-66
2023/05/27 05:19:27;;;;;;;6.57;2.30;;;;;;;13.41;68.55;100947.50;5069969;28;20443;-68
2023/05/27 05:21:52;;;;;;;4.22;2.05;;;;;;;13.42;67.72;100946.50;5086883;28;20476;-68
2023/05/27 05:24:18;;;;;;;11.75;2.22;;;;;;;13.46;67.29;100945.16;5070247;28;20040;-68
2023/05/27 05:26:44;;;;;;;8.43;2.22;;;;;;;13.37;67.35;100948.88;5086972;28;20036;-67
2023/05/27 05:29:10;;;;;;;6.55;2.65;;;;;;;13.43;66.92;100949.00;5086642;28;20131;-68
2023/05/27 05:31:36;;;;;;;6.80;2.10;;;;;;;13.46;67.23;100945.97;5087123;28;20040;-67
2023/05/27 05:34:02;;;;;;;10.63;2.60;;;;;;;13.49;67.32;100952.81;5072820;28;20470;-67
2023/05/27 05:36:30;;;;;;;;;;;;;;;13.53;66.92;100951.47;5073767;28;20036;-69
2023/05/27 05:39:03;;;;;;;9.40;2.80;;;;;;;13.61;66.02;100950.56;5073191;28;20388;-68
2023/05/27 05:41:29;;;;;;;4.88;2.40;;;;;;;13.58;67.02;100951.78;5073482;28;20032;-67
2023/05/27 05:43:55;;;;;;;4.22;2.33;;;;;;;13.70;67.42;100945.00;5073328;28;20052;-57
2023/05/27 05:46:21;;;;;;;4.70;2.08;;;;;;;13.74;67.25;100942.81;5073243;28;20039;-58
2023/05/27 05:48:46;;;;;;;6.05;2.15;;;;;;;13.86;65.74;100944.06;5074112;28;20400;-58
2023/05/27 05:51:17;;;;;;;6.43;2.20;;;;;;;13.83;65.68;100941.75;5074389;28;20507;-57
2023/05/27 05:53:46;;;;;;;7.53;2.60;;;;;;;13.84;65.62;100938.91;5073151;28;20039;-65
2023/05/27 05:56:11;;;;;;;6.60;2.70;;;;;;;13.99;65.33;100930.91;5072864;28;20032;-66
2023/05/27 05:58:37;;;;;;;7.95;2.38;;;;;;;13.94;64.88;100935.97;5072633;28;20036;-65
2023/05/27 06:01:04;;;;;;;4.03;2.58;;;;;;;14.06;64.92;100936.38;5072944;28;20572;-65
2023/05/27 06:03:35;;;;;;;6.65;3.05;;;;;;;14.14;65.09;100936.31;5072844;28;20064;-65
2023/05/27 06:06:02;;;;;;;6.55;2.88;;;;;;;14.12;64.55;100941.88;5072808;28;20089;-65
2023/05/27 06:08:29;;;;;;;4.47;1.90;;;;;;;14.17;64.07;100940.50;5072501;28;20040;-64
2023/05/27 06:11:01;;;;;;;4.93;2.25;;;;;;;14.17;64.56;100935.97;5072881;28;20085;-65
2023/05/27 06:13:30;;;;;;;8.35;2.60;;;;;;;14.35;63.70;100939.19;5072687;28;20047;-65
2023/05/27 06:15:57;;;;;;;6.03;2.15;;;;;;;14.30;63.97;100938.03;5072687;28;20679;-65
2023/05/27 06:18:23;;;;;;;5.78;2.72;;;;;;;14.43;64.25;100940.13;5072426;28;20044;-64
2023/05/27 06:20:49;;;;;;;6.70;2.60;;;;;;;14.29;63.90;100934.53;5072486;28;20036;-64
2023/05/27 06:23:14;;;;;;;4.22;1.98;;;;;;;14.53;64.36;100943.38;5055784;28;20464;-63
2023/05/27 06:26:00;;;;;;;5.93;1.83;;;;;;;14.40;63.41;100939.44;5066256;28;20083;-65
2023/05/27 06:28:29;;;;;;;10.80;2.63;;;;;;;14.67;62.65;100931.88;5072097;28;20037;-65
2023/05/27 06:30:55;;;;;;;6.60;2.25;;;;;;;14.54;62.19;100937.88;5072422;28;20576;-65
2023/05/27 06:33:21;;;;;;;10.35;1.88;;;;;;;14.46;62.57;100932.56;5072423;28;20036;-65
2023/05/27 06:35:46;;;;;;;4.40;2.13;;;;;;;14.56;63.19;100935.00;5072187;28;20043;-65
2023/05/27 06:38:12;;;;;;;7.40;2.33;;;;;;;14.65;62.29;100941.94;5072241;28;20056;-65
2023/05/27 06:40:38;;;;;;;6.10;2.28;;;;;;;14.64;61.74;100937.59;5071778;28;20121;-65
2023/05/27 06:43:04;;;;;;;12.77;3.03;;;;;;;14.64;62.47;100932.22;5072268;28;20061;-64
2023/05/27 06:45:48;;;;;;;5.88;2.42;;;;;;;14.77;61.74;100932.41;5072911;28;20067;-65
2023/05/27 06:48:25;;;;;;;7.80;2.40;;;;;;;14.78;62.18;100930.56;5071658;28;20036;-64
2023/05/27 06:50:50;;;;;;;9.55;2.25;;;;;;;14.89;62.48;100936.31;5072221;28;20037;-65
2023/05/27 06:53:15;;;;;;;8.20;2.40;;;;;;;14.89;62.19;100930.94;5071254;28;20027;-65
2023/05/27 06:55:55;;;;;;;6.35;2.10;;;;;;;15.00;60.94;100928.84;5072020;28;20036;-65
2023/05/27 06:58:39;;;;;;;6.22;2.33;;;;;;;15.09;60.84;100933.06;5073058;28;20518;-65
2023/05/27 07:01:12;;;;;;;9.23;2.42;;;;;;;14.96;61.32;100920.31;5071889;28;20028;-65
2023/05/27 07:03:52;;;;;;;7.20;1.83;;;;;;;15.10;60.72;100929.38;5071859;28;20032;-65
2023/05/27 07:06:37;;;;;;;9.07;2.85;;;;;;;15.01;59.89;100927.81;5065422;28;20135;-65
2023/05/27 07:09:03;;;;;;;5.13;1.92;;;;;;;15.09;59.52;100928.53;5072457;28;20119;-65
2023/05/27 07:11:32;;;;;;;7.07;2.28;;;;;;;15.22;59.73;100930.56;5071596;28;20033;-65
2023/05/27 07:14:02;;;;;;;7.63;2.45;;;;;;;15.15;59.13;100930.47;5071739;28;20033;-65
2023/05/27 07:16:31;;;;;;;4.13;2.00;;;;;;;15.36;59.19;100940.44;5071361;28;20029;-65
2023/05/27 07:18:57;;;;;;;6.43;2.50;;;;;;;15.50;59.07;100937.91;5071154;28;20059;-65
2023/05/27 07:21:22;;;;;;;7.28;2.08;;;;;;;15.59;58.31;100942.16;5071369;28;20067;-64
2023/05/27 07:23:48;;;;;;;5.57;2.47;;;;;;;15.66;57.84;100927.00;5071393;28;20047;-65
2023/05/27 07:26:28;;;;;;;5.10;1.95;;;;;;;15.81;57.73;100927.75;5071176;28;20041;-64
2023/05/27 07:28:58;;;;;;;5.28;1.98;;;;;;;15.85;58.54;100926.38;5071078;28;20067;-61
2023/05/27 07:31:32;;;;;;;5.32;2.08;;;;;;;15.91;58.88;100930.13;5071277;28;20045;-53
2023/05/27 07:34:03;;;;;;;7.15;3.25;;;;;;;15.80;57.58;100915.38;5071260;28;20059;-50
2023/05/27 07:36:29;;;;;;;4.85;1.77;;;;;;;15.93;57.88;100917.34;5071094;28;20032;-54
2023/05/27 07:38:54;;;;;;;5.50;2.00;;;;;;;16.13;56.98;100915.69;5070942;28;20082;-66
2023/05/27 07:41:21;;;;;;;6.88;2.30;;;;;;;16.13;57.27;100918.38;5071013;28;20070;-66
2023/05/27 07:43:47;;;;;;;5.88;2.25;;;;;;;16.11;57.45;100908.84;5071120;28;20032;-66
2023/05/27 07:46:12;;;;;;;8.68;2.30;;;;;;;16.30;58.20;100913.56;5072245;28;20032;-66
2023/05/27 07:48:39;;;;;;;9.32;2.33;;;;;;;16.55;56.45;100911.22;5070763;28;20056;-66
2023/05/27 07:51:05;;;;;;;8.45;2.10;;;;;;;16.52;56.51;100915.16;5070868;28;20044;-64
2023/05/27 07:53:31;;;;;;;8.85;2.80;;;;;;;16.63;56.37;100913.81;5071171;28;20039;-66
2023/05/27 07:55:57;;;;;;;9.32;2.15;;;;;;;16.63;56.31;100907.59;5070593;28;20102;-67
2023/05/27 07:58:22;;;;;;;4.53;2.10;;;;;;;16.42;56.28;100895.00;5070567;28;20037;-67
2023/05/27 08:01:01;;;;;;;5.55;2.10;;;;;;;16.43;56.37;100891.28;5070864;28;20028;-66
2023/05/27 08:03:27;;;;;;;7.10;2.28;;;;;;;16.66;55.74;100897.25;5070717;28;20036;-66
2023/05/27 08:06:13;;;;;;;9.27;2.95;;;;;;;16.79;55.67;100896.53;5069607;28;20052;-67
2023/05/27 08:08:53;;;;;;;11.98;3.00;;;;;;;16.82;55.46;100885.38;5069818;28;20119;-66
2023/05/27 08:11:32;;;;;;;7.03;2.58;;;;;;;16.93;55.94;100889.38;5070257;28;20101;-66
2023/05/27 08:14:03;;;;;;;6.30;2.67;;;;;;;17.08;55.32;100885.53;5070420;28;20074;-67
2023/05/27 08:16:50;;;;;;;5.40;2.35;;;;;;;17.13;55.23;100881.38;5069072;28;20227;-67
2023/05/27 08:19:33;;;;;;;8.15;2.20;;;;;;;17.11;54.77;100868.13;5069387;28;20043;-67
2023/05/27 08:22:08;;;;;;;6.85;2.47;;;;;;;17.41;54.75;100878.56;5070613;28;20051;-66
2023/05/27 08:24:54;;;;;;;4.30;2.30;;;;;;;17.53;54.39;100877.78;5071905;28;20052;-67
2023/05/27 08:27:46;;;;;;;5.40;2.00;;;;;;;17.66;53.71;100870.78;5070479;28;20032;-67
2023/05/27 08:30:18;;;;;;;10.27;2.70;;;;;;;17.75;53.77;100872.28;5070082;28;20047;-67
2023/05/27 08:32:52;;;;;;;7.47;1.88;;;;;;;17.69;53.41;100860.44;5070587;28;20025;-67
2023/05/27 08:35:18;;;;;;;4.32;2.10;;;;;;;17.89;53.53;100869.41;5070538;28;20521;-67
2023/05/27 08:37:44;;;;;;;7.28;2.35;;;;;;;17.78;53.00;100861.91;5070346;28;20122;-67
2023/05/27 08:40:16;;;;;;;6.85;2.90;;;;;;;18.04;53.20;100863.78;5070126;28;20032;-67
2023/05/27 08:42:49;;;;;;;6.28;2.60;;;;;;;18.23;52.89;100867.53;5070353;28;20045;-67
2023/05/27 08:45:15;;;;;;;4.85;2.22;;;;;;;18.28;52.65;100865.03;5070310;28;20444;-67
2023/05/27 08:47:41;;;;;;;5.40;2.20;;;;;;;18.73;51.28;100856.28;5070340;28;20029;-67
2023/05/27 08:50:10;;;;;;;7.47;2.63;;;;;;;18.72;51.73;100860.03;5070077;28;20032;-67
2023/05/27 08:52:46;;;;;;;7.63;2.10;;;;;;;18.90;51.11;100869.06;5070224;28;20029;-67
2023/05/27 08:55:15;;;;;;;6.15;2.45;;;;;;;18.93;51.55;100862.44;5070219;28;20040;-67
2023/05/27 08:57:43;;;;;;;4.53;2.65;;;;;;;19.05;51.39;100860.75;5070178;28;20086;-67
2023/05/27 09:00:13;;;;;;;6.40;2.40;;;;;;;19.06;50.85;100857.00;5070021;28;20033;-67
2023/05/27 09:02:40;;;;;;;7.82;2.95;;;;;;;18.97;51.17;100850.16;5070204;28;20036;-67
2023/05/27 09:05:08;;;;;;;6.38;2.70;;;;;;;19.28;49.89;100853.97;5070248;28;20102;-67
2023/05/27 09:07:33;;;;;;;8.70;2.88;;;;;;;19.34;50.26;100853.13;5072733;28;20040;-67
2023/05/27 09:09:59;;;;;;;8.65;2.38;;;;;;;19.29;49.17;100853.75;5075493;28;20029;-67
2023/05/27 09:12:28;;;;;;;7.57;2.63;;;;;;;19.32;49.40;100849.81;5075099;28;20448;-67
2023/05/27 09:14:54;;;;;;;5.28;2.30;;;;;;;19.76;48.45;100846.25;5075026;28;20047;-68
2023/05/27 09:17:22;;;;;;;4.60;2.40;;;;;;;19.62;49.32;100840.06;5075027;28;20051;-68
2023/05/27 09:19:50;;;;;;;3.78;2.00;;;;;;;19.94;49.22;100840.06;5074741;28;20497;-68
2023/05/27 09:22:25;;;;;;;6.53;2.65;;;;;;;20.00;48.71;100831.88;5074982;28;20046;-68
2023/05/27 09:24:55;;;;;;;6.50;2.45;;;;;;;20.15;48.32;100836.97;5074963;28;20064;-68
2023/05/27 09:27:38;;;;;;;6.65;2.28;;;;;;;20.41;47.32;100830.50;5074893;28;20033;-68
2023/05/27 09:30:08;;;;;;;6.05;2.53;;;;;;;20.44;46.83;100831.91;5074841;28;20110;-68
2023/05/27 09:32:33;;;;;;;3.60;2.30;;;;;;;20.48;47.12;100833.16;5075097;28;20041;-67
2023/05/27 09:35:01;;;;;;;9.15;2.53;;;;;;;20.63;46.74;100828.19;5074673;28;20039;-68
2023/05/27 09:37:31;;;;;;;;;;;;;;;21.02;45.96;100826.06;5075137;28;20060;-68
2023/05/27 09:40:15;;;;;;;6.10;2.35;;;;;;;21.31;45.89;100832.56;5074472;28;19912;-68
2023/05/27 09:42:48;;;;;;;8.68;2.80;;;;;;;21.44;45.32;100843.22;5074712;28;20076;-68
2023/05/27 09:45:16;;;;;;;5.45;2.50;;;;;;;21.55;45.32;100828.06;5074463;28;20044;-68
2023/05/27 09:47:47;;;;;;;6.20;2.22;;;;;;;21.68;46.17;100833.28;5074456;28;20382;-68
2023/05/27 09:50:16;;;;;;;3.70;2.05;;;;;;;21.90;44.59;100831.66;5074221;28;20040;-68
2023/05/27 09:52:43;;;;;;;6.75;2.50;;;;;;;21.77;44.59;100821.03;5074388;28;20119;-68
2023/05/27 09:55:11;;;;;;;10.88;3.00;;;;;;;21.77;44.07;100823.75;5074348;28;20508;-68
2023/05/27 09:57:36;;;;;;;8.23;3.22;;;;;;;21.90;44.08;100815.41;5074415;28;20393;-68
2023/05/27 10:00:16;;;;;;;5.72;2.35;;;;;;;22.55;43.03;100819.91;5073978;28;20099;-68
2023/05/27 10:02:44;;;;;;;5.47;2.40;;;;;;;21.97;43.66;100818.00;5074260;28;20028;-68
2023/05/27 10:05:12;;;;;;;8.38;2.35;;;;;;;22.30;43.31;100825.63;5074195;28;20037;-67
2023/05/27 10:07:40;;;;;;;6.88;2.80;;;;;;;22.38;42.97;100816.28;5074070;28;20153;-67
2023/05/27 10:10:08;;;;;;;7.28;2.95;;;;;;;22.52;42.72;100812.25;5073737;28;20520;-68
2023/05/27 10:12:35;;;;;;;3.92;2.50;;;;;;;22.62;42.88;100815.16;5073832;28;20056;-68
2023/05/27 10:15:01;;;;;;;7.35;2.88;;;;;;;23.06;42.41;100812.84;5074027;28;20110;-68
2023/05/27 10:17:26;;;;;;;5.85;2.50;;;;;;;23.31;41.82;100807.06;5073907;28;20517;-68
2023/05/27 10:19:56;;;;;;;5.18;2.08;;;;;;;23.73;41.38;100801.28;5073537;28;20089;-67
2023/05/27 10:22:22;;;;;;;8.75;2.50;;;;;;;24.05;40.08;100805.06;5073726;28;20043;-68
2023/05/27 10:24:48;;;;;;;4.70;2.53;;;;;;;24.12;41.45;100801.34;5073536;28;20040;-65
2023/05/27 10:27:13;;;;;;;5.63;2.53;;;;;;;23.75;40.57;100796.44;5073654;28;20055;-64
2023/05/27 10:29:39;;;;;;;11.52;2.55;;;;;;;24.33;40.81;100789.72;5073463;28;20040;-65
2023/05/27 10:32:05;;;;;;;6.80;2.60;;;;;;;24.32;39.87;100799.78;5073760;28;20043;-66
2023/05/27 10:34:41;;;;;;;4.88;2.90;;;;;;;24.78;40.49;100794.97;5073572;28;20040;-65
2023/05/27 10:37:07;;;;;;;7.68;2.65;;;;;;;24.99;39.92;100796.03;5073514;28;20040;-66
2023/05/27 10:39:32;;;;;;;6.70;2.55;;;;;;;25.45;37.28;100793.78;5073115;28;20048;-66
2023/05/27 10:41:58;;;;;;;7.60;2.60;;;;;;;25.42;38.45;100781.47;5073313;28;20039;-65
2023/05/27 10:44:35;;;;;;;6.22;2.50;;;;;;;25.29;38.22;100781.91;5073403;28;20619;-67
2023/05/27 10:47:13;;;;;;;6.03;2.90;;;;;;;25.76;36.85;100784.00;5073295;28;20036;-66
2023/05/27 10:49:39;;;;;;;6.22;2.85;;;;;;;25.87;36.63;100776.69;5073101;28;20048;-65
2023/05/27 10:52:11;;;;;;;7.30;2.50;;;;;;;25.37;37.56;100772.47;5073117;28;20048;-65
2023/05/27 10:54:37;;;;;;;7.18;2.22;;;;;;;24.96;38.65;100771.16;5073268;28;20279;-66
2023/05/27 10:57:02;;;;;;;8.75;3.40;;;;;;;25.38;37.34;100774.09;5073067;28;20382;-64
2023/05/27 10:59:58;;;;;;;6.85;3.53;;;;;;;25.43;37.75;100776.88;5072760;28;20039;-65
2023/05/27 11:02:24;;;;;;;7.22;2.80;;;;;;;25.75;37.21;100776.88;5072942;28;20032;-66
2023/05/27 11:04:50;;;;;;;4.88;2.92;;;;;;;26.04;37.02;100763.72;5072973;28;20043;-66
2023/05/27 11:07:20;;;;;;;5.00;2.30;;;;;;;26.15;35.67;100770.91;5073031;28;20037;-66
2023/05/27 11:09:48;;;;;;;9.30;3.33;;;;;;;26.82;35.20;100776.69;5072560;28;20032;-66
2023/05/27 11:12:17;;;;;;;6.70;2.67;;;;;;;26.87;34.52;100769.34;5072734;28;20037;-64
2023/05/27 11:14:48;;;;;;;5.50;2.50;;;;;;;26.78;35.07;100768.22;5072790;28;20032;-65
2023/05/27 11:17:14;;;;;;;4.43;2.78;;;;;;;26.74;34.49;100767.13;5072667;28;20033;-65
2023/05/27 11:19:40;;;;;;;5.75;2.42;;;;;;;26.34;35.91;100754.06;5072347;28;20054;-65
2023/05/27 11:22:07;;;;;;;5.97;2.47;;;;;;;26.55;35.96;100755.84;5072596;28;20028;-65
2023/05/27 11:24:33;;;;;;;5.63;2.50;;;;;;;26.68;36.16;100758.06;5072797;28;20123;-66
2023/05/27 11:26:58;;;;;;;5.63;2.80;;;;;;;27.17;35.06;100751.38;5072730;28;20144;-65
2023/05/27 11:29:24;;;;;;;6.43;2.72;;;;;;;26.57;35.07;100739.19;5072225;28;20048;-65
2023/05/27 11:31:50;;;;;;;5.47;2.90;;;;;;;26.40;35.25;100740.19;5070623;28;20036;-65
2023/05/27 11:34:20;;;;;;;3.83;2.35;;;;;;;27.01;35.72;100743.13;5072427;28;20082;-66
2023/05/27 11:36:49;;;;;;;6.38;2.80;;;;;;;27.56;34.68;100738.00;5072755;28;20119;-65
2023/05/27 11:39:17;;;;;;;5.85;2.65;;;;;;;27.55;33.92;100730.91;5068417;28;20033;-65
2023/05/27 11:41:51;;;;;;;4.82;2.15;;;;;;;27.61;34.71;100721.59;5060923;28;20027;-65
2023/05/27 11:44:18;;;;;;;6.63;2.75;;;;;;;27.43;35.00;100713.94;5068226;28;20048;-66
2023/05/27 11:46:45;;;;;;;5.60;2.30;;;;;;;27.57;33.79;100712.28;5072579;28;20048;-65
2023/05/27 11:49:16;;;;;;;6.22;2.92;;;;;;;27.59;33.92;100705.47;5055153;28;20043;-66
2023/05/27 11:51:46;;;;;;;4.15;2.40;;;;;;;27.92;33.14;100696.97;5066473;28;20036;-65
2023/05/27 11:54:30;;;;;;;5.82;2.75;;;;;;;28.34;32.70;100707.50;5052215;28;20170;-65
2023/05/27 11:56:58;;;;;;;6.30;2.58;;;;;;;28.00;32.55;100691.72;5052239;28;20048;-65
2023/05/27 11:59:24;;;;;;;5.95;2.22;;;;;;;28.42;32.73;100706.91;5051915;28;20087;-66
2023/05/27 12:01:51;;;;;;;6.20;2.50;;;;;;;28.58;32.63;100693.97;5052138;28;20040;-66
2023/05/27 12:04:17;;;;;;;6.43;2.45;;;;;;;27.29;34.64;100678.13;5052083;28;20086;-65
2023/05/27 12:06:44;;;;;;;4.72;2.67;;;;;;;28.31;33.35;100684.25;5051998;28;20033;-64
2023/05/27 12:09:10;;;;;;;;;;;;;;;28.51;33.78;100686.06;5052110;28;20041;-65
2023/05/27 12:11:36;;;;;;;5.72;2.55;;;;;;;28.34;33.26;100674.63;5052028;28;19969;-65
2023/05/27 12:14:02;;;;;;;3.42;2.17;;;;;;;28.87;32.75;100678.44;5052090;28;20037;-66
2023/05/27 12:16:27;;;;;;;4.70;2.10;;;;;;;29.28;32.95;100680.06;5051965;28;20033;-65
2023/05/27 12:18:53;;;;;;;5.35;2.80;;;;;;;29.41;32.04;100676.69;5051781;28;20040;-65
2023/05/27 12:21:20;;;;;;;5.20;2.50;;;;;;;28.70;32.22;100658.03;5051817;28;20040;-66
2023/05/27 12:23:46;;;;;;;5.35;2.65;;;;;;;29.27;32.25;100664.72;5050691;28;20041;-65
2023/05/27 12:26:13;;;;;;;5.03;2.70;;;;;;;29.46;30.66;100660.16;5051652;28;20086;-65
2023/05/27 12:28:39;;;;;;;3.40;2.42;;;;;;;29.15;31.62;100656.91;5051483;28;20044;-66
2023/05/27 12:31:04;;;;;;;4.78;2.40;;;;;;;29.25;31.31;100659.53;5051748;28;20080;-66
2023/05/27 12:33:30;;;;;;;6.20;2.60;;;;;;;29.42;30.92;100662.69;5052063;28;20134;-65
2023/05/27 12:35:56;;;;;;;4.93;2.38;;;;;;;29.55;31.83;100647.50;5051719;28;20091;-65
2023/05/27 12:38:21;;;;;;;4.90;2.77;;;;;;;29.22;31.49;100651.91;5051424;28;20047;-65
2023/05/27 12:40:48;;;;;;;6.28;2.90;;;;;;;29.85;30.94;100651.81;5051675;28;20115;-65
2023/05/27 12:43:14;;;;;;;3.53;2.40;;;;;;;30.01;30.70;100649.72;5053836;28;20049;-65
2023/05/27 12:45:40;;;;;;;8.13;2.97;;;;;;;29.62;31.45;100647.16;5055657;28;20032;-65
2023/05/27 12:48:06;;;;;;;10.52;2.92;;;;;;;29.81;31.41;100633.50;5055752;28;20553;-64
2023/05/27 12:50:31;;;;;;;3.33;2.05;;;;;;;30.20;29.80;100645.13;5055377;28;20040;-65
2023/05/27 12:52:57;;;;;;;7.35;2.95;;;;;;;29.77;29.76;100636.00;5055561;28;20040;-66
2023/05/27 12:55:24;;;;;;;6.67;2.53;;;;;;;29.92;30.81;100640.50;5058261;28;20095;-66
2023/05/27 12:57:51;;;;;;;5.97;2.72;;;;;;;29.37;30.97;100629.81;5055454;28;20033;-66
2023/05/27 13:00:17;;;;;;;5.90;3.03;;;;;;;29.98;29.94;100629.16;5055276;28;20045;-66
2023/05/27 13:02:44;;;;;;;5.22;2.30;;;;;;;30.10;28.64;100616.97;5055418;28;20040;-66
2023/05/27 13:05:10;;;;;;;7.43;2.45;;;;;;;30.23;29.92;100619.00;5055308;28;20124;-66
2023/05/27 13:07:39;;;;;;;4.73;2.20;;;;;;;30.04;29.76;100613.44;5055286;28;20032;-65
2023/05/27 13:10:06;;;;;;;5.30;2.80;;;;;;;27.79;32.17;100597.09;5054952;28;20049;-64
2023/05/27 13:12:33;;;;;;;5.18;2.33;;;;;;;28.77;32.04;100609.19;5055164;28;20101;-55
2023/05/27 13:15:00;;;;;;;6.22;2.65;;;;;;;29.00;31.70;100610.38;5055154;28;20033;-49
2023/05/27 13:17:26;;;;;;;6.85;3.35;;;;;;;28.62;31.73;100605.44;5055073;28;20071;-58
2023/05/27 13:19:52;;;;;;;5.47;2.53;;;;;;;27.41;32.12;100593.06;5054714;28;20069;-53
2023/05/27 13:22:18;;;;;;;7.32;2.85;;;;;;;27.77;33.71;100597.34;5054924;28;20591;-52
2023/05/27 13:24:43;;;;;;;4.43;2.25;;;;;;;27.51;32.64;100598.50;5053857;28;20036;-52
2023/05/27 13:27:09;;;;;;;5.88;2.75;;;;;;;27.28;32.72;100600.72;5055018;28;20040;-55
2023/05/27 13:29:35;;;;;;;4.15;2.30;;;;;;;27.35;32.67;100591.44;5054596;28;20478;-58
2023/05/27 13:32:01;;;;;;;6.60;2.88;;;;;;;26.66;33.58;100590.03;5054757;28;20110;-58
2023/05/27 13:34:28;;;;;;;6.70;2.50;;;;;;;26.60;33.28;100588.38;5054969;28;20091;-57
2023/05/27 13:36:54;;;;;;;8.30;2.92;;;;;;;26.42;33.84;100587.84;5054561;28;20129;-57
2023/05/27 13:39:19;;;;;;;6.13;2.78;;;;;;;26.02;36.02;100580.31;5054400;28;20115;-53
2023/05/27 13:41:45;;;;;;;5.22;2.60;;;;;;;25.74;35.18;100578.00;5054718;28;20029;-52
2023/05/27 13:44:10;;;;;;;6.68;2.55;;;;;;;26.08;34.75;100575.69;5054735;28;20068;-53
2023/05/27 13:46:36;;;;;;;6.47;2.50;;;;;;;26.14;34.39;100580.06;5054794;28;20040;-59
2023/05/27 13:49:01;;;;;;;4.68;2.40;;;;;;;26.00;35.32;100568.84;5054204;28;20102;-55
2023/05/27 13:51:29;;;;;;;4.05;2.50;;;;;;;25.89;34.19;100561.72;5054504;28;20119;-56
2023/05/27 13:53:54;;;;;;;4.63;2.28;;;;;;;26.15;34.40;100557.97;5053894;28;20052;-52
2023/05/27 13:56:21;;;;;;;6.93;2.58;;;;;;;26.06;35.20;100562.31;5054310;28;20045;-54
2023/05/27 13:58:46;;;;;;;2.90;2.40;;;;;;;25.49;34.38;100562.28;5054093;28;20099;-52
2023/05/27 14:01:12;;;;;;;4.85;2.35;;;;;;;25.32;35.56;100548.84;5054348;28;20112;-55
2023/05/27 14:03:37;;;;;;;6.47;2.55;;;;;;;25.38;35.56;100545.06;5054238;28;20064;-55
2023/05/27 14:06:03;;;;;;;7.90;3.13;;;;;;;25.00;35.51;100546.16;5054166;28;20375;-52
2023/05/27 14:08:28;;;;;;;2.90;2.10;;;;;;;25.12;35.84;100544.91;5057773;28;20044;-57
2023/05/27 14:10:53;;;;;;;5.90;2.47;;;;;;;25.07;35.94;100538.59;5070060;28;20044;-54
2023/05/27 14:13:19;;;;;;;4.00;2.60;;;;;;;25.08;34.90;100546.50;5073695;28;20459;-54
2023/05/27 14:15:44;;;;;;;6.40;3.20;;;;;;;25.10;35.52;100533.47;5073875;28;20047;-55
2023/05/27 14:18:10;;;;;;;4.78;2.33;;;;;;;24.88;35.68;100521.81;5073614;28;20044;-55
2023/05/27 14:20:35;;;;;;;3.92;2.33;;;;;;;24.89;35.67;100524.28;5072884;28;20137;-55
2023/05/27 14:23:04;;;;;;;7.80;2.50;;;;;;;24.86;36.90;100524.81;5072831;28;20044;-52
2023/05/27 14:25:29;;;;;;;7.78;2.17;;;;;;;24.89;36.25;100520.72;5073651;28;20735;-56
2023/05/27 14:27:56;;;;;;;4.03;2.30;;;;;;;24.84;35.91;100517.97;5073336;28;20036;-53
2023/05/27 14:30:24;;;;;;;5.57;2.75;;;;;;;24.73;35.47;100518.97;5072813;28;20064;-54
2023/05/27 14:32:49;;;;;;;6.78;3.00;;;;;;;24.83;35.30;100517.13;5073273;28;20078;-56
2023/05/27 14:35:15;;;;;;;3.75;2.38;;;;;;;24.60;35.83;100514.78;5073298;28;20041;-58
2023/05/27 14:37:40;;;;;;;7.63;2.95;;;;;;;24.61;36.05;100525.41;5068703;28;20104;-54
2023/05/27 14:40:07;;;;;;;5.03;2.35;;;;;;;24.72;36.18;100520.88;5052556;28;20051;-51
2023/05/27 14:42:32;;;;;;;5.28;2.53;;;;;;;24.78;34.70;100514.41;5053183;28;20109;-54
2023/05/27 14:44:57;;;;;;;5.03;2.80;;;;;;;24.79;35.11;100523.38;5053351;28;20558;-51
2023/05/27 14:47:23;;;;;;;6.00;3.30;;;;;;;24.77;34.56;100511.91;5051983;28;20124;-55
2023/05/27 14:49:48;;;;;;;4.20;2.60;;;;;;;24.66;35.13;100510.22;5052229;28;20067;-53
2023/05/27 14:52:14;;;;;;;8.88;2.75;;;;;;;24.60;35.36;100502.00;5058063;28;20402;-55
2023/05/27 14:54:39;;;;;;;3.53;2.13;;;;;;;24.45;35.92;100501.88;5072849;28;20486;-54
2023/05/27 14:57:05;;;;;;;3.45;1.95;;;;;;;24.43;35.70;100503.19;5071744;28;20040;-50
2023/05/27 14:59:30;;;;;;;7.38;2.58;;;;;;;24.21;36.09;100498.63;5072148;28;20032;-52
2023/05/27 15:01:56;;;;;;;6.45;2.72;;;;;;;24.13;35.37;100492.81;5072892;28;20143;-51
2023/05/27 15:04:21;;;;;;;5.05;2.20;;;;;;;24.16;36.24;100495.84;5072336;28;20149;-52
2023/05/27 15:06:47;;;;;;;4.28;2.97;;;;;;;24.23;35.85;100495.63;5072044;28;20111;-53
2023/05/27 15:09:12;;;;;;;3.85;2.55;;;;;;;24.24;36.09;100497.25;5054764;28;20033;-51
2023/05/27 15:11:38;;;;;;;6.22;2.60;;;;;;;24.23;35.73;100491.00;5052706;28;20080;-55
2023/05/27 15:14:04;;;;;;;7.82;2.67;;;;;;;24.20;35.66;100498.88;5051548;28;20052;-54
2023/05/27 15:16:29;;;;;;;6.40;2.80;;;;;;;24.39;36.01;100504.78;5051324;28;20051;-54
2023/05/27 15:18:55;;;;;;;5.10;2.22;;;;;;;24.38;36.27;100497.69;5051539;28;20044;-54
2023/05/27 15:21:21;;;;;;;6.60;2.15;;;;;;;24.28;36.26;100491.06;5052333;28;20151;-55
2023/05/27 15:23:46;;;;;;;5.72;2.63;;;;;;;24.36;35.89;100493.34;5051522;28;20036;-54
2023/05/27 15:26:12;;;;;;;4.63;2.80;;;;;;;24.53;35.45;100500.56;5051162;28;20041;-53
2023/05/27 15:28:37;;;;;;;5.13;2.28;;;;;;;24.51;35.30;100497.25;5051241;28;20563;-55
2023/05/27 15:31:03;;;;;;;4.75;2.53;;;;;;;24.22;36.46;100491.25;5051420;28;20497;-54
2023/05/27 15:33:28;;;;;;;5.95;2.85;;;;;;;24.43;35.86;100489.59;5051823;28;20474;-55
2023/05/27 15:35:53;;;;;;;5.00;2.85;;;;;;;24.33;35.91;100484.84;5052352;28;20044;-55
2023/05/27 15:38:19;;;;;;;3.83;2.22;;;;;;;24.31;34.16;100484.25;5052266;28;20036;-53
2023/05/27 15:40:44;;;;;;;5.95;2.30;;;;;;;24.31;33.87;100486.97;5052256;28;20459;-53
2023/05/27 15:43:11;;;;;;;4.78;2.25;;;;;;;24.16;34.17;100478.69;5052424;28;20093;-53
2023/05/27 15:45:40;;;;;;;2.83;1.98;;;;;;;24.09;37.12;100479.72;5052260;28;20041;-53
2023/05/27 15:48:09;;;;;;;4.07;2.53;;;;;;;24.20;36.02;100471.66;5052342;28;20440;-52
2023/05/27 15:50:41;;;;;;;7.25;2.58;;;;;;;24.15;34.95;100475.16;5051812;28;20382;-55
2023/05/27 15:53:07;;;;;;;5.28;2.17;;;;;;;24.30;33.95;100477.19;5052231;28;20040;-58